Time;durP1;ratioP1;P1;durP2;ratioP2;P2;SDS_P1;SDS_P2;PMS_P1;PMS_P2;Temp;Humidity;BMP_temperature;BMP_pressure;BME280_temperature;BME280_humidity;BME280_pressure;Samples;Min_cycle;Max_cycle;Signal;HPM_P1;HPM_P2
2021/10/22 00:01:00;;;;;;;9.93;2.17;;;9.10;99.90;;;;;;5093944;28;21022;-48
2021/10/22 00:03:29;;;;;;;11.83;2.20;;;9.30;99.90;;;;;;5112055;28;20436;-48
2021/10/22 00:05:56;;;;;;;10.63;2.80;;;9.10;99.90;;;;;;5093641;28;20447;-48
2021/10/22 00:08:25;;;;;;;10.33;3.00;;;8.90;99.90;;;;;;5114187;28;20571;-48
2021/10/22 00:10:52;;;;;;;9.73;2.20;;;9.00;99.90;;;;;;5097855;28;20914;-49
2021/10/22 00:13:19;;;;;;;8.67;2.60;;;9.00;99.90;;;;;;5116366;28;20438;-49
2021/10/22 00:15:46;;;;;;;8.40;2.30;;;9.00;99.90;;;;;;5115918;28;20463;-48
2021/10/22 00:18:13;;;;;;;11.37;2.30;;;9.00;99.90;;;;;;5097128;28;20467;-49
2021/10/22 00:20:41;;;;;;;7.70;2.57;;;8.60;99.90;;;;;;5115844;28;20518;-49
2021/10/22 00:23:10;;;;;;;8.57;2.77;;;8.90;99.90;;;;;;5097934;28;20535;-48
2021/10/22 00:25:37;;;;;;;4.80;1.83;;;9.10;99.90;;;;;;5097559;28;20420;-49
2021/10/22 00:28:05;;;;;;;9.40;2.90;;;8.90;99.90;;;;;;5115206;28;20456;-49
2021/10/22 00:30:32;;;;;;;13.20;2.50;;;9.00;99.90;;;;;;5097196;28;20998;-49
2021/10/22 00:32:59;;;;;;;7.73;2.57;;;8.60;99.90;;;;;;5115769;28;20522;-49
2021/10/22 00:35:25;;;;;;;9.90;2.10;;;8.90;99.90;;;;;;5115612;28;20474;-49
2021/10/22 00:37:53;;;;;;;9.13;2.20;;;8.90;99.90;;;;;;5114073;28;20534;-48
2021/10/22 00:40:23;;;;;;;6.17;1.97;;;8.90;99.90;;;;;;5099574;28;20512;-49
2021/10/22 00:42:51;;;;;;;7.93;2.23;;;8.90;99.90;;;;;;5098163;28;21047;-49
2021/10/22 00:45:17;;;;;;;11.43;2.00;;;8.90;99.90;;;;;;5097642;28;20534;-49
2021/10/22 00:47:46;;;;;;;9.97;2.77;;;8.80;99.90;;;;;;5097234;28;20438;-48
2021/10/22 00:50:13;;;;;;;8.83;2.60;;;8.80;99.90;;;;;;5115409;28;20547;-47
2021/10/22 00:52:42;;;;;;;11.20;2.53;;;8.70;99.90;;;;;;5115420;28;20431;-48
2021/10/22 00:55:12;;;;;;;9.20;2.23;;;8.70;99.90;;;;;;5115542;28;20522;-49
2021/10/22 00:57:41;;;;;;;9.07;2.60;;;8.80;99.90;;;;;;5115282;28;20431;-48
2021/10/22 01:00:09;;;;;;;9.10;3.00;;;8.70;99.90;;;;;;5115250;28;20444;-48
2021/10/22 01:02:36;;;;;;;7.97;2.83;;;8.70;99.90;;;;;;5115352;28;20467;-48
2021/10/22 01:05:08;;;;;;;12.33;3.20;;;8.70;99.90;;;;;;5114940;28;20434;-49
2021/10/22 01:07:38;;;;;;;13.03;3.33;;;8.60;99.90;;;;;;5115148;28;20470;-48
2021/10/22 01:10:05;;;;;;;9.97;2.77;;;8.90;99.90;;;;;;5115003;28;20975;-48
2021/10/22 01:12:36;;;;;;;6.60;2.40;;;8.80;99.90;;;;;;5096735;28;20444;-49
2021/10/22 01:15:05;;;;;;;21.73;5.07;;;9.00;99.90;;;;;;5114929;28;20511;-49
2021/10/22 01:17:34;;;;;;;17.70;2.47;;;8.50;99.90;;;;;;5096354;28;20829;-49
2021/10/22 01:20:01;;;;;;;7.33;2.10;;;8.10;99.90;;;;;;5114208;28;20448;-49
2021/10/22 01:22:29;;;;;;;7.57;2.50;;;8.50;99.90;;;;;;5114913;28;20823;-48
2021/10/22 01:24:56;;;;;;;18.23;3.23;;;8.30;99.90;;;;;;5114698;28;20445;-48
2021/10/22 01:27:24;;;;;;;13.00;3.23;;;8.60;99.90;;;;;;5114647;28;20515;-49
2021/10/22 01:29:51;;;;;;;9.40;2.73;;;8.30;99.90;;;;;;5095887;28;20482;-49
2021/10/22 01:32:21;;;;;;;8.73;3.10;;;8.40;99.90;;;;;;5114641;28;20782;-49
2021/10/22 01:34:48;;;;;;;6.53;2.43;;;8.50;99.90;;;;;;5114525;28;20502;-49
2021/10/22 01:37:14;;;;;;;10.30;3.07;;;8.30;99.90;;;;;;5114495;28;20860;-49
2021/10/22 01:39:45;;;;;;;15.67;3.00;;;8.50;99.90;;;;;;5095763;28;20979;-48
2021/10/22 01:42:12;;;;;;;9.67;3.00;;;8.50;99.90;;;;;;5114356;28;21039;-48
2021/10/22 01:44:39;;;;;;;8.17;2.30;;;8.30;99.90;;;;;;5096194;28;20447;-49
2021/10/22 01:47:08;;;;;;;13.00;3.10;;;8.40;99.90;;;;;;5095908;28;20450;-47
2021/10/22 01:49:35;;;;;;;18.37;2.53;;;8.40;99.90;;;;;;5113899;28;20482;-48
2021/10/22 01:52:02;;;;;;;12.57;3.57;;;8.40;99.90;;;;;;5096017;28;20526;-48
2021/10/22 01:54:29;;;;;;;16.53;2.63;;;8.40;99.90;;;;;;5114379;28;20446;-48
2021/10/22 01:56:57;;;;;;;9.40;4.43;;;8.50;99.90;;;;;;5096092;28;20446;-48
2021/10/22 01:59:24;;;;;;;12.90;3.10;;;8.40;99.90;;;;;;5114620;28;20518;-48
2021/10/22 02:01:51;;;;;;;6.93;2.37;;;8.20;99.90;;;;;;5113996;28;20438;-49
2021/10/22 02:04:17;;;;;;;9.60;3.07;;;8.20;99.90;;;;;;5095655;28;20456;-47
2021/10/22 02:06:44;;;;;;;11.50;3.13;;;8.50;99.90;;;;;;5114015;28;20470;-48
2021/10/22 02:09:13;;;;;;;11.53;3.20;;;8.10;99.90;;;;;;5113435;28;21010;-48
2021/10/22 02:11:42;;;;;;;10.00;2.50;;;8.20;99.90;;;;;;5113716;28;20519;-47
2021/10/22 02:14:11;;;;;;;10.70;2.97;;;8.30;99.90;;;;;;5113863;28;20470;-48
2021/10/22 02:16:37;;;;;;;9.30;2.37;;;8.30;99.90;;;;;;5113616;28;20442;-48
2021/10/22 02:19:04;;;;;;;9.40;2.60;;;8.40;99.90;;;;;;5113269;28;20549;-48
2021/10/22 02:21:31;;;;;;;12.70;2.53;;;8.20;99.90;;;;;;5113620;28;20519;-48
2021/10/22 02:23:57;;;;;;;7.77;2.63;;;8.20;99.90;;;;;;5095332;28;20439;-48
2021/10/22 02:26:24;;;;;;;8.90;3.00;;;8.50;99.90;;;;;;5113485;28;20469;-48
2021/10/22 02:28:51;;;;;;;9.03;2.73;;;8.30;99.90;;;;;;5112888;28;20499;-48
2021/10/22 02:31:20;;;;;;;8.90;3.23;;;8.30;99.90;;;;;;5111371;28;20477;-48
2021/10/22 02:33:50;;;;;;;8.10;2.90;;;8.40;99.90;;;;;;5113819;28;20405;-48
2021/10/22 02:36:17;;;;;;;13.20;2.87;;;7.80;99.90;;;;;;5113397;28;21024;-48
2021/10/22 02:38:44;;;;;;;9.93;3.50;;;8.40;99.90;;;;;;5113038;28;20455;-48
2021/10/22 02:41:11;;;;;;;10.83;2.30;;;8.60;99.90;;;;;;5113273;28;20407;-48
2021/10/22 02:43:38;;;;;;;11.93;2.50;;;8.20;99.90;;;;;;5113304;28;20958;-47
2021/10/22 02:46:05;;;;;;;8.97;2.80;;;8.60;99.90;;;;;;5113053;28;20459;-48
2021/10/22 02:48:33;;;;;;;10.70;3.30;;;8.60;99.90;;;;;;5112423;28;20545;-48
2021/10/22 02:51:00;;;;;;;5.77;2.83;;;8.20;99.90;;;;;;5113011;28;20489;-48
2021/10/22 02:53:26;;;;;;;19.37;3.50;;;8.20;99.90;;;;;;5094660;28;20554;-48
2021/10/22 02:55:53;;;;;;;11.30;2.50;;;8.30;99.90;;;;;;5111627;28;20474;-48
2021/10/22 02:58:20;;;;;;;11.07;2.73;;;8.30;99.90;;;;;;5094107;28;20468;-48
2021/10/22 03:00:49;;;;;;;10.60;2.50;;;8.50;99.90;;;;;;5112783;28;20443;-49
2021/10/22 03:03:16;;;;;;;10.17;2.83;;;8.50;99.90;;;;;;5112803;28;20406;-49
2021/10/22 03:05:46;;;;;;;12.07;2.30;;;8.50;99.90;;;;;;5094644;28;20441;-49
2021/10/22 03:08:14;;;;;;;9.00;2.50;;;8.50;99.90;;;;;;5093939;28;20468;-49
2021/10/22 03:10:41;;;;;;;13.43;2.90;;;8.50;99.90;;;;;;5112554;28;21062;-48
2021/10/22 03:13:08;;;;;;;16.17;3.20;;;8.50;99.90;;;;;;5112458;28;20526;-48
2021/10/22 03:15:34;;;;;;;15.63;4.10;;;8.50;99.90;;;;;;5094259;28;20512;-49
2021/10/22 03:18:01;;;;;;;10.77;2.90;;;8.50;99.90;;;;;;5114057;28;20680;-48
2021/10/22 03:20:31;;;;;;;6.30;2.10;;;8.70;99.90;;;;;;5112571;28;20414;-48
2021/10/22 03:22:59;;;;;;;5.90;3.20;;;8.50;99.90;;;;;;5112602;28;20527;-48
2021/10/22 03:25:26;;;;;;;8.80;2.93;;;8.80;99.90;;;;;;5112496;28;20409;-49
2021/10/22 03:28:01;;;;;;;9.80;3.50;;;8.60;99.90;;;;;;5111954;28;20448;-49
2021/10/22 03:30:28;;;;;;;8.37;2.70;;;8.50;99.90;;;;;;5110995;28;20558;-49
2021/10/22 03:32:55;;;;;;;9.70;2.07;;;8.60;99.90;;;;;;5112595;28;20523;-49
2021/10/22 03:35:21;;;;;;;9.73;2.67;;;8.60;99.90;;;;;;5112331;28;20485;-49
2021/10/22 03:37:48;;;;;;;13.90;2.53;;;8.50;99.90;;;;;;5112144;28;20971;-48
2021/10/22 03:40:16;;;;;;;10.07;3.20;;;8.60;99.90;;;;;;5112253;28;21041;-48
2021/10/22 03:42:44;;;;;;;17.50;3.73;;;8.60;99.90;;;;;;5112170;28;20433;-48
2021/10/22 03:45:11;;;;;;;10.50;2.40;;;8.80;99.90;;;;;;5112118;28;20438;-48
2021/10/22 03:47:40;;;;;;;14.10;2.80;;;8.50;99.90;;;;;;5093317;28;20539;-48
2021/10/22 03:50:07;;;;;;;14.20;3.57;;;8.50;99.90;;;;;;5093699;28;21066;-48
2021/10/22 03:52:37;;;;;;;9.17;2.67;;;8.50;99.90;;;;;;5112108;28;20394;-47
2021/10/22 03:55:04;;;;;;;8.20;2.17;;;8.30;99.90;;;;;;5110798;28;20458;-49
2021/10/22 03:57:33;;;;;;;10.73;2.57;;;8.80;99.90;;;;;;5112184;28;20938;-49
2021/10/22 04:00:01;;;;;;;10.43;3.17;;;8.60;99.90;;;;;;5103716;22;20540;-50
2021/10/22 04:02:27;;;;;;;10.20;2.60;;;8.60;99.90;;;;;;5091590;28;20410;-50
2021/10/22 04:04:54;;;;;;;6.97;2.30;;;9.00;99.90;;;;;;5091691;28;20683;-50
2021/10/22 04:07:21;;;;;;;6.20;1.73;;;8.70;99.90;;;;;;5091623;28;20494;-50
2021/10/22 04:09:47;;;;;;;7.20;2.90;;;8.70;99.90;;;;;;5090977;28;20541;-51
2021/10/22 04:12:14;;;;;;;13.93;3.50;;;8.70;99.90;;;;;;5090129;28;21032;-51
2021/10/22 04:14:42;;;;;;;12.23;3.07;;;9.00;99.90;;;;;;5091350;28;20435;-50
2021/10/22 04:17:09;;;;;;;10.73;2.30;;;9.00;99.90;;;;;;5091530;28;20765;-51
2021/10/22 04:19:41;;;;;;;4.00;2.57;;;8.70;99.90;;;;;;5089757;28;20479;-50
2021/10/22 04:22:08;;;;;;;8.43;2.20;;;8.60;99.90;;;;;;5091506;28;20442;-50
2021/10/22 04:24:35;;;;;;;9.57;2.77;;;8.60;99.90;;;;;;5091215;28;20497;-50
2021/10/22 04:27:01;;;;;;;5.77;2.17;;;8.90;99.90;;;;;;5091165;28;20841;-51
2021/10/22 04:29:30;;;;;;;11.30;2.87;;;8.60;99.90;;;;;;5090779;28;20495;-49
2021/10/22 04:31:59;;;;;;;12.63;3.90;;;8.60;99.90;;;;;;5091313;28;20993;-51
2021/10/22 04:34:28;;;;;;;7.97;2.30;;;8.50;99.90;;;;;;5091350;28;20482;-50
2021/10/22 04:37:00;;;;;;;22.47;2.70;;;8.50;99.90;;;;;;5091248;28;20560;-50
2021/10/22 04:42:14;;;;;;;9.53;2.90;;;8.90;99.90;;;;;;5089815;28;20456;-51
2021/10/22 04:44:43;;;;;;;6.53;2.27;;;8.50;99.90;;;;;;5090981;28;20448;-51
2021/10/22 04:47:11;;;;;;;11.67;2.43;;;8.80;99.90;;;;;;5089754;28;20469;-51
2021/10/22 04:49:38;;;;;;;14.13;3.70;;;8.50;99.90;;;;;;5089298;28;20494;-50
2021/10/22 04:52:05;;;;;;;6.00;2.93;;;8.50;99.90;;;;;;5090829;28;20513;-51
2021/10/22 04:54:32;;;;;;;7.90;2.60;;;8.50;99.90;;;;;;5093625;28;20530;-50
2021/10/22 04:56:58;;;;;;;12.00;3.07;;;9.00;99.90;;;;;;5094577;28;20507;-50
2021/10/22 04:59:25;;;;;;;14.93;3.00;;;8.60;99.90;;;;;;5094060;28;20534;-50
2021/10/22 05:01:52;;;;;;;10.00;2.73;;;8.70;99.90;;;;;;5094779;28;20429;-50
2021/10/22 05:04:20;;;;;;;7.10;2.87;;;8.90;99.90;;;;;;5093325;28;20535;-50
2021/10/22 05:06:46;;;;;;;12.30;2.60;;;8.70;99.90;;;;;;5093009;28;20447;-50
2021/10/22 05:09:13;;;;;;;8.73;2.67;;;8.90;99.90;;;;;;5093963;28;20548;-50
2021/10/22 05:11:40;;;;;;;7.70;2.10;;;8.20;99.90;;;;;;5094091;28;20502;-51
2021/10/22 05:14:06;;;;;;;7.97;2.37;;;8.50;99.90;;;;;;5094035;28;20433;-51
2021/10/22 05:16:40;;;;;;;7.67;3.13;;;8.50;99.90;;;;;;5094141;28;20434;-50
2021/10/22 05:19:15;;;;;;;7.00;3.23;;;8.50;99.90;;;;;;5093685;28;20509;-50
2021/10/22 05:21:43;;;;;;;8.97;3.20;;;8.50;99.90;;;;;;5092599;28;20877;-50
2021/10/22 05:24:09;;;;;;;8.27;2.60;;;8.40;99.90;;;;;;5093845;28;20535;-50
2021/10/22 05:26:36;;;;;;;11.13;3.47;;;8.80;99.90;;;;;;5093965;28;20420;-50
2021/10/22 05:29:03;;;;;;;9.43;2.83;;;8.70;99.90;;;;;;5091950;28;20467;-50
2021/10/22 05:31:30;;;;;;;10.57;2.57;;;8.80;99.90;;;;;;5092604;28;20484;-50
2021/10/22 05:33:56;;;;;;;10.43;2.73;;;8.70;99.90;;;;;;5092468;28;20440;-50
2021/10/22 05:36:24;;;;;;;9.13;3.07;;;8.40;99.90;;;;;;5093726;28;20435;-51
2021/10/22 05:38:53;;;;;;;10.03;2.63;;;8.50;99.90;;;;;;5092925;28;20445;-51
2021/10/22 05:41:20;;;;;;;9.00;2.70;;;8.40;99.90;;;;;;5093696;28;20440;-51
2021/10/22 05:43:47;;;;;;;8.30;3.03;;;8.00;99.90;;;;;;5093391;28;20498;-50
2021/10/22 05:46:18;;;;;;;8.00;2.93;;;8.20;99.90;;;;;;5093487;28;20468;-51
2021/10/22 05:48:45;;;;;;;7.40;2.33;;;8.80;99.90;;;;;;5092940;28;20457;-50
2021/10/22 05:51:13;;;;;;;14.57;2.60;;;8.30;99.90;;;;;;5093307;28;20816;-50
2021/10/22 05:53:40;;;;;;;8.87;3.33;;;8.60;99.90;;;;;;5093311;28;20421;-50
2021/10/22 05:56:08;;;;;;;4.90;2.40;;;8.70;99.90;;;;;;5093812;28;20471;-50
2021/10/22 05:58:35;;;;;;;12.23;3.10;;;8.60;99.90;;;;;;5091549;28;20504;-50
2021/10/22 06:01:03;;;;;;;12.13;3.10;;;8.80;99.90;;;;;;5093432;28;20432;-49
2021/10/22 06:03:29;;;;;;;14.40;4.23;;;8.30;99.90;;;;;;5093474;28;20848;-51
2021/10/22 06:05:57;;;;;;;8.90;2.60;;;8.60;99.90;;;;;;5093257;28;20436;-49
2021/10/22 06:08:24;;;;;;;14.40;3.90;;;8.70;99.90;;;;;;5092759;28;20847;-51
2021/10/22 06:10:53;;;;;;;10.47;3.73;;;8.30;99.90;;;;;;5093047;28;20556;-50
2021/10/22 06:13:21;;;;;;;10.40;2.87;;;9.00;99.90;;;;;;5092629;28;20410;-50
2021/10/22 06:15:48;;;;;;;12.07;3.60;;;8.20;99.90;;;;;;5093400;28;20448;-50
2021/10/22 06:18:17;;;;;;;7.00;2.60;;;8.60;99.90;;;;;;5092681;28;20912;-49
2021/10/22 06:20:47;;;;;;;12.03;2.30;;;8.60;99.90;;;;;;5093222;28;20529;-51
2021/10/22 06:25:58;;;;;;;18.10;3.10;;;8.80;99.90;;;;;;5092659;28;20852;-51
2021/10/22 06:28:26;;;;;;;12.30;2.80;;;8.40;99.90;;;;;;5092774;28;20497;-50
2021/10/22 06:30:53;;;;;;;12.60;2.70;;;9.20;99.90;;;;;;5092590;28;20833;-51
2021/10/22 06:33:19;;;;;;;7.27;2.90;;;9.00;99.90;;;;;;5092730;28;20433;-50
2021/10/22 06:35:48;;;;;;;12.77;3.10;;;8.90;99.90;;;;;;5092552;28;20464;-51
2021/10/22 06:38:14;;;;;;;5.50;2.50;;;9.10;99.90;;;;;;5091909;28;20407;-51
2021/10/22 06:40:42;;;;;;;12.37;2.80;;;8.80;99.90;;;;;;5090885;28;20468;-51
2021/10/22 06:43:09;;;;;;;12.80;3.90;;;9.20;99.90;;;;;;5092240;28;20519;-51
2021/10/22 06:45:37;;;;;;;21.87;3.50;;;9.20;99.90;;;;;;5092245;28;20468;-51
2021/10/22 06:48:05;;;;;;;17.03;4.60;;;9.50;99.90;;;;;;5090302;28;21033;-51
2021/10/22 06:50:32;;;;;;;9.77;3.10;;;9.10;99.90;;;;;;5092142;28;20446;-51
2021/10/22 06:52:59;;;;;;;9.10;3.27;;;8.90;99.90;;;;;;5091793;28;20525;-51
2021/10/22 06:55:26;;;;;;;8.83;2.83;;;9.30;99.90;;;;;;5092194;28;20464;-50
2021/10/22 06:57:52;;;;;;;10.33;2.53;;;9.40;99.90;;;;;;5091378;28;20439;-51
2021/10/22 07:00:19;;;;;;;8.50;3.90;;;9.70;99.90;;;;;;5091787;28;20479;-51
2021/10/22 07:02:52;;;;;;;13.70;3.70;;;9.40;99.90;;;;;;5091920;28;20429;-50
2021/10/22 07:05:34;;;;;;;9.77;2.63;;;9.40;99.90;;;;;;5090567;28;20453;-50
2021/10/22 07:08:01;;;;;;;17.27;3.77;;;9.80;99.90;;;;;;5091440;28;20742;-50
2021/10/22 07:10:30;;;;;;;7.43;2.73;;;9.80;99.90;;;;;;5091740;28;20753;-51
2021/10/22 07:12:57;;;;;;;9.57;3.00;;;9.10;99.90;;;;;;5091601;28;20933;-51
2021/10/22 07:15:25;;;;;;;7.33;2.80;;;9.60;99.90;;;;;;5091560;28;20925;-50
2021/10/22 07:17:56;;;;;;;11.23;3.33;;;9.50;99.90;;;;;;5089839;28;20531;-52
2021/10/22 07:20:25;;;;;;;12.50;2.80;;;9.90;99.90;;;;;;5090566;28;20564;-51
2021/10/22 07:22:53;;;;;;;11.33;2.80;;;9.60;99.90;;;;;;5091796;28;20755;-51
2021/10/22 07:25:23;;;;;;;14.80;3.20;;;10.00;99.90;;;;;;5091417;28;20437;-51
2021/10/22 07:27:51;;;;;;;17.03;4.10;;;10.10;99.90;;;;;;5089734;28;20468;-51
2021/10/22 07:30:19;;;;;;;9.93;2.97;;;9.70;99.90;;;;;;5089649;28;20507;-51
2021/10/22 07:32:47;;;;;;;12.30;3.57;;;9.70;99.90;;;;;;5089885;28;20549;-50
2021/10/22 07:35:16;;;;;;;6.87;2.80;;;10.20;99.90;;;;;;5091308;28;20433;-50
2021/10/22 07:37:46;;;;;;;9.67;3.43;;;10.00;99.90;;;;;;5089720;28;20458;-51
2021/10/22 07:40:13;;;;;;;10.67;3.10;;;9.80;99.90;;;;;;5091237;28;20488;-50
2021/10/22 07:42:39;;;;;;;8.63;3.43;;;9.80;99.90;;;;;;5091147;28;20424;-50
2021/10/22 07:45:08;;;;;;;10.20;3.40;;;9.90;99.90;;;;;;5091268;28;20460;-50
2021/10/22 07:47:36;;;;;;;9.20;3.40;;;9.90;99.90;;;;;;5091071;28;20439;-50
2021/10/22 07:50:08;;;;;;;5.90;3.10;;;10.30;99.90;;;;;;5091116;28;20863;-51
2021/10/22 07:52:37;;;;;;;7.67;2.37;;;10.00;99.90;;;;;;5090814;28;20471;-50
2021/10/22 07:55:05;;;;;;;11.10;2.70;;;10.20;99.90;;;;;;5091221;28;20433;-50
2021/10/22 07:57:33;;;;;;;11.60;3.90;;;10.00;99.90;;;;;;5091123;28;20445;-51
2021/10/22 08:00:00;;;;;;;11.00;3.67;;;10.10;99.90;;;;;;5090925;28;20533;-51
2021/10/22 08:02:27;;;;;;;10.50;3.97;;;10.30;99.90;;;;;;5089983;28;20452;-50
2021/10/22 08:04:55;;;;;;;7.67;2.90;;;10.30;99.90;;;;;;5089711;28;20895;-51
2021/10/22 08:07:27;;;;;;;16.77;3.00;;;10.20;99.90;;;;;;5090584;28;20961;-50
2021/10/22 08:09:55;;;;;;;9.87;2.40;;;10.20;99.90;;;;;;5090748;28;21017;-51
2021/10/22 08:12:22;;;;;;;8.63;2.83;;;10.10;99.90;;;;;;5090844;28;21088;-52
2021/10/22 08:14:49;;;;;;;13.27;2.40;;;10.20;99.90;;;;;;5091278;28;20510;-52
2021/10/22 08:17:16;;;;;;;16.13;3.57;;;10.30;99.90;;;;;;5091428;28;20471;-51
2021/10/22 08:19:45;;;;;;;9.10;3.33;;;10.40;99.90;;;;;;5090462;28;20432;-51
2021/10/22 08:22:31;;;;;;;6.63;3.00;;;10.50;99.90;;;;;;5090796;28;20520;-53
2021/10/22 08:25:01;;;;;;;7.37;3.30;;;9.70;99.90;;;;;;5091351;28;20862;-51
2021/10/22 08:27:30;;;;;;;17.10;4.13;;;10.20;99.90;;;;;;5091073;28;20463;-51
2021/10/22 08:29:57;;;;;;;7.63;2.57;;;10.40;99.90;;;;;;5093892;28;20460;-51
2021/10/22 08:32:27;;;;;;;13.87;3.70;;;10.50;99.90;;;;;;5094167;28;20512;-51
2021/10/22 08:34:54;;;;;;;9.43;2.60;;;10.60;99.90;;;;;;5093376;28;20548;-50
2021/10/22 08:37:21;;;;;;;8.67;3.03;;;10.20;99.90;;;;;;5094137;28;20440;-51
2021/10/22 08:39:48;;;;;;;8.23;2.27;;;10.30;99.90;;;;;;5093323;28;20468;-50
2021/10/22 08:42:21;;;;;;;10.53;3.60;;;9.90;99.90;;;;;;5093870;28;20976;-50
2021/10/22 08:44:48;;;;;;;8.30;3.37;;;10.30;99.90;;;;;;5092919;28;20484;-50
2021/10/22 08:47:17;;;;;;;8.40;3.30;;;10.30;99.90;;;;;;5094512;28;20465;-50
2021/10/22 08:49:43;;;;;;;8.73;2.50;;;10.50;99.90;;;;;;5092649;28;20496;-52
2021/10/22 08:52:10;;;;;;;9.43;3.10;;;10.50;99.90;;;;;;5094086;28;20476;-51
2021/10/22 08:54:39;;;;;;;12.53;2.93;;;10.80;99.90;;;;;;5094012;28;20467;-51
2021/10/22 08:57:07;;;;;;;9.40;3.40;;;10.40;99.90;;;;;;5093059;28;20896;-51
2021/10/22 08:59:35;;;;;;;5.87;2.90;;;10.50;99.90;;;;;;5093970;28;20462;-50
2021/10/22 09:02:19;;;;;;;11.40;3.20;;;10.80;99.90;;;;;;5094195;28;20437;-51
2021/10/22 09:04:47;;;;;;;10.60;2.83;;;10.90;99.90;;;;;;5094241;28;20429;-51
2021/10/22 09:07:16;;;;;;;7.97;2.80;;;10.20;99.60;;;;;;5093971;28;20433;-51
2021/10/22 09:09:44;;;;;;;4.97;3.00;;;10.70;99.60;;;;;;5092418;28;20879;-50
2021/10/22 09:12:11;;;;;;;7.30;2.70;;;10.90;99.90;;;;;;5093792;28;20455;-50
2021/10/22 09:14:41;;;;;;;7.40;3.20;;;10.80;99.60;;;;;;5093964;28;20432;-51
2021/10/22 09:17:13;;;;;;;6.80;2.67;;;10.90;99.60;;;;;;5094692;28;20847;-51
2021/10/22 09:19:43;;;;;;;10.77;2.97;;;11.00;99.30;;;;;;5093459;28;20491;-51
2021/10/22 09:22:24;;;;;;;8.63;3.13;;;10.80;99.30;;;;;;5092429;28;20449;-52
2021/10/22 09:24:53;;;;;;;18.93;3.63;;;11.20;99.10;;;;;;5092113;28;20466;-51
2021/10/22 09:27:43;;;;;;;8.40;3.43;;;11.20;99.20;;;;;;5093704;28;20926;-51
2021/10/22 09:30:37;;;;;;;12.50;4.50;;;11.20;99.20;;;;;;5094024;28;20457;-51
2021/10/22 09:33:05;;;;;;;12.40;3.40;;;11.70;99.40;;;;;;5092602;28;21022;-51
2021/10/22 09:35:51;;;;;;;7.30;3.13;;;11.20;99.20;;;;;;5093638;28;20940;-52
2021/10/22 09:38:21;;;;;;;10.40;3.27;;;11.20;98.90;;;;;;5093128;28;20445;-51
2021/10/22 09:40:50;;;;;;;11.20;3.20;;;11.50;99.20;;;;;;5093268;28;20429;-51
2021/10/22 09:43:20;;;;;;;7.23;2.50;;;11.20;99.10;;;;;;5093464;28;20524;-51
2021/10/22 09:45:50;;;;;;;7.50;3.17;;;11.20;99.20;;;;;;5093363;28;20767;-52
2021/10/22 09:48:25;;;;;;;5.40;2.43;;;11.40;99.40;;;;;;5092693;28;20498;-52
2021/10/22 09:50:54;;;;;;;6.00;3.33;;;11.10;99.20;;;;;;5092013;28;20473;-52
2021/10/22 09:53:27;;;;;;;9.03;3.00;;;11.10;99.20;;;;;;5092589;28;20448;-51
2021/10/22 09:56:03;;;;;;;13.03;3.40;;;11.10;99.20;;;;;;5093051;28;20843;-51
2021/10/22 09:58:29;;;;;;;10.27;2.93;;;11.10;99.20;;;;;;5092521;28;20491;-51
2021/10/22 10:01:08;;;;;;;11.90;4.30;;;11.20;99.20;;;;;;5124767;22;20554;-46
2021/10/22 10:03:39;;;;;;;7.30;2.87;;;11.30;99.20;;;;;;5114362;28;20549;-47
2021/10/22 10:06:07;;;;;;;17.73;3.67;;;11.00;99.20;;;;;;5112434;28;20461;-45
2021/10/22 10:08:37;;;;;;;6.40;3.33;;;11.00;99.30;;;;;;5113451;28;20998;-46
2021/10/22 10:11:05;;;;;;;11.80;4.10;;;11.30;99.40;;;;;;5112709;28;20471;-46
2021/10/22 10:13:35;;;;;;;11.33;3.13;;;11.10;99.30;;;;;;5113605;28;20443;-45
2021/10/22 10:16:10;;;;;;;11.60;2.87;;;11.20;99.30;;;;;;5113869;28;20465;-46
2021/10/22 10:18:42;;;;;;;13.07;3.00;;;11.30;99.30;;;;;;5113729;28;20477;-47
2021/10/22 10:21:14;;;;;;;12.23;3.30;;;11.30;99.30;;;;;;5113598;28;20879;-46
2021/10/22 10:23:43;;;;;;;5.43;2.60;;;11.20;99.20;;;;;;5112357;28;20471;-47
2021/10/22 10:26:28;;;;;;;6.37;3.40;;;10.90;99.00;;;;;;5113537;28;20433;-46
2021/10/22 10:28:56;;;;;;;14.10;3.33;;;11.30;99.10;;;;;;5112990;28;20886;-46
2021/10/22 10:31:40;;;;;;;8.23;3.57;;;11.30;99.00;;;;;;5111801;28;20511;-47
2021/10/22 10:34:40;;;;;;;12.43;4.00;;;11.30;98.90;;;;;;5113367;28;20504;-47
2021/10/22 10:37:30;;;;;;;16.17;3.47;;;11.30;98.90;;;;;;5111749;28;20427;-46
2021/10/22 10:40:14;;;;;;;9.97;2.80;;;11.30;98.90;;;;;;5112982;28;20448;-47
2021/10/22 10:42:44;;;;;;;12.00;2.60;;;11.40;98.90;;;;;;5111696;28;20485;-47
2021/10/22 10:45:37;;;;;;;10.13;2.97;;;11.30;98.90;;;;;;5113830;28;20467;-45
2021/10/22 10:48:06;;;;;;;14.93;3.13;;;11.30;98.80;;;;;;5112291;28;20441;-46
2021/10/22 10:50:40;;;;;;;10.67;3.20;;;11.10;98.80;;;;;;5111403;28;20471;-46
2021/10/22 10:53:08;;;;;;;6.00;2.60;;;11.60;99.10;;;;;;5113452;28;21019;-46
2021/10/22 10:55:40;;;;;;;8.70;3.20;;;11.40;99.00;;;;;;5113804;28;20448;-46
2021/10/22 10:58:19;;;;;;;9.20;2.60;;;11.30;98.90;;;;;;5113914;28;20459;-47
2021/10/22 11:00:50;;;;;;;8.90;3.97;;;11.10;98.80;;;;;;5113013;27;20458;-48
2021/10/22 11:03:26;;;;;;;9.70;3.23;;;11.30;99.10;;;;;;5113169;28;20429;-47
2021/10/22 11:06:16;;;;;;;8.30;3.20;;;11.30;99.30;;;;;;5112974;28;20429;-46
2021/10/22 11:09:01;;;;;;;8.10;4.30;;;11.20;99.30;;;;;;5111016;28;20442;-46
2021/10/22 11:11:35;;;;;;;11.33;3.40;;;11.30;99.50;;;;;;5112440;28;20569;-48
2021/10/22 11:14:18;;;;;;;10.50;3.27;;;11.10;99.60;;;;;;5112946;28;20949;-46
2021/10/22 11:16:56;;;;;;;7.87;2.70;;;11.30;99.60;;;;;;5112419;28;20428;-47
2021/10/22 11:19:32;;;;;;;7.53;2.80;;;11.20;99.40;;;;;;5110246;28;20499;-46
2021/10/22 11:22:02;;;;;;;7.50;3.40;;;11.20;99.30;;;;;;5110992;28;20440;-47
2021/10/22 11:24:31;;;;;;;7.37;2.90;;;11.20;99.30;;;;;;5111355;28;20446;-46
2021/10/22 11:27:01;;;;;;;10.00;3.17;;;11.20;99.20;;;;;;5111785;28;20475;-46
2021/10/22 11:29:29;;;;;;;6.17;2.50;;;11.00;99.20;;;;;;5110924;28;20555;-46
2021/10/22 11:31:58;;;;;;;12.63;3.40;;;11.20;99.10;;;;;;5111818;28;20902;-44
2021/10/22 11:34:28;;;;;;;8.40;3.50;;;11.20;99.00;;;;;;5110804;28;20490;-46
2021/10/22 11:37:01;;;;;;;10.80;2.83;;;11.00;98.90;;;;;;5112369;28;20433;-46
2021/10/22 11:39:31;;;;;;;6.70;3.17;;;11.30;99.00;;;;;;5112131;28;20452;-46
2021/10/22 11:42:22;;;;;;;5.23;2.87;;;11.10;98.90;;;;;;5112537;28;20936;-45
2021/10/22 11:44:50;;;;;;;8.17;2.60;;;11.40;99.00;;;;;;5112302;28;20433;-45
2021/10/22 11:47:21;;;;;;;9.30;2.90;;;11.30;98.90;;;;;;5112432;28;20486;-46
2021/10/22 11:49:49;;;;;;;11.60;3.20;;;11.30;98.80;;;;;;5112363;28;20473;-47
2021/10/22 11:52:18;;;;;;;8.77;2.70;;;11.40;98.90;;;;;;5110826;28;20533;-46
2021/10/22 11:54:46;;;;;;;10.23;2.93;;;11.40;98.70;;;;;;5111881;28;20417;-46
2021/10/22 11:57:15;;;;;;;8.63;2.60;;;11.80;98.80;;;;;;5111967;28;20476;-48
2021/10/22 11:59:46;;;;;;;5.37;2.13;;;11.50;98.40;;;;;;5111400;28;20846;-46
2021/10/22 12:02:14;;;;;;;5.47;2.13;;;11.40;98.20;;;;;;5112642;28;20472;-46
2021/10/22 12:04:41;;;;;;;10.63;1.73;;;11.50;98.20;;;;;;5115333;28;20499;-46
2021/10/22 12:07:11;;;;;;;11.53;2.57;;;11.70;98.40;;;;;;5115975;28;20842;-47
2021/10/22 12:09:40;;;;;;;9.97;2.87;;;11.50;98.30;;;;;;5114592;28;20469;-47
2021/10/22 12:12:12;;;;;;;7.90;2.70;;;11.50;98.40;;;;;;5116353;28;20969;-47
2021/10/22 12:14:44;;;;;;;7.03;3.20;;;11.70;98.50;;;;;;5116137;28;20434;-46
2021/10/22 12:17:18;;;;;;;10.67;2.47;;;11.60;98.40;;;;;;5114997;28;20460;-45
2021/10/22 12:19:46;;;;;;;8.33;2.50;;;11.60;98.30;;;;;;5115292;28;20461;-46
2021/10/22 12:22:16;;;;;;;6.10;2.50;;;12.10;98.60;;;;;;5115878;28;20427;-47
2021/10/22 12:24:45;;;;;;;6.97;2.37;;;11.70;98.40;;;;;;5116327;28;20440;-47
2021/10/22 12:27:15;;;;;;;12.67;3.70;;;11.70;98.30;;;;;;5116339;27;20423;-46
2021/10/22 12:29:53;;;;;;;10.53;2.90;;;11.70;98.20;;;;;;5115924;28;20502;-45
2021/10/22 12:32:35;;;;;;;6.57;2.20;;;11.30;98.10;;;;;;5116216;28;20510;-46
2021/10/22 12:35:03;;;;;;;6.23;2.40;;;11.60;98.20;;;;;;5115846;28;20448;-46
2021/10/22 12:37:40;;;;;;;9.67;2.20;;;11.70;98.40;;;;;;5116909;28;20833;-45
2021/10/22 12:40:15;;;;;;;8.20;2.13;;;11.50;98.10;;;;;;5117136;28;20465;-46
2021/10/22 12:42:42;;;;;;;14.50;3.87;;;11.70;98.00;;;;;;5118961;28;20592;-46
2021/10/22 12:45:13;;;;;;;6.13;2.30;;;11.70;98.20;;;;;;5117163;28;20443;-46
2021/10/22 12:47:41;;;;;;;6.63;2.17;;;11.50;98.30;;;;;;5117321;28;20545;-47
2021/10/22 12:50:10;;;;;;;5.60;2.40;;;11.70;98.50;;;;;;5115468;28;20525;-46
2021/10/22 12:52:38;;;;;;;9.33;2.40;;;11.80;98.70;;;;;;5115044;28;20513;-48
2021/10/22 12:55:07;;;;;;;7.77;2.10;;;11.80;98.70;;;;;;5115113;28;20447;-47
2021/10/22 12:57:34;;;;;;;8.00;2.53;;;11.70;98.50;;;;;;5114308;28;20539;-45
2021/10/22 13:00:23;;;;;;;8.57;2.60;;;11.80;98.50;;;;;;5113887;28;20472;-47
2021/10/22 13:02:51;;;;;;;11.70;3.50;;;11.90;98.60;;;;;;5114842;28;20881;-46
2021/10/22 13:05:21;;;;;;;8.23;2.90;;;11.80;98.70;;;;;;5114187;28;20441;-46